Terminal Aerodrome Forecast
Issued by NWS Detroit/Pontiac, MI

Home | Current Version | Previous Version | Text Only | Print | Product List | Glossary On
Versions: 1 2 3 4 5 6 7 8 9 10 11 12 13 14 15 16 17 18 19 20 21 22 23 24 25
000
FTUS43 KDTX 192322
TAFDTW
TAF
KDTW 192322Z 2000/2106 20013KT 6SM -SHRA BR SCT015 BKN025 OVC040
      TEMPO 2000/2004 4SM RA BR BKN007 OVC015
     FM201100 20013KT 5SM -RA BR BKN008 OVC015
     FM201800 21015G22KT 6SM -RA BR SCT008 OVC015=

USA.gov is the U.S. government's official web portal to all federal, state and local government web resources and services.